Time;durP1;ratioP1;P1;durP2;ratioP2;P2;SDS_P1;SDS_P2;PMS_P1;PMS_P2;Temp;Humidity;BMP_temperature;BMP_pressure;BME280_temperature;BME280_humidity;BME280_pressure;Samples;Min_cycle;Max_cycle;Signal;HPM_P1;HPM_P2
2022/06/03 05:54:28;;;;;;;;;5.00;4.00;;;;;;;;5963892;23;45434;-77
2022/06/03 05:56:56;;;;;;;;;6.25;6.00;;;;;;;;5981860;23;45421;-77
2022/06/03 06:02:41;;;;;;;;;5.25;5.25;;;;;;;;6058200;23;46336;-77
2022/06/03 06:16:10;;;;;;;;;6.50;6.00;;;;;;;;6216620;22;45095;-77
2022/06/03 06:43:29;;;;;;;;;6.25;6.25;;;;;;;;6138659;23;45582;-78
2022/06/03 06:45:59;;;;;;;;;7.00;7.00;;;;;;;;6158218;23;45557;-78
2022/06/03 10:05:01;;;;;;;;;13.25;9.75;;;;;;;;6184769;22;47616;-76
2022/06/03 12:35:54;;;;;;;;;7.00;5.00;;;;;;;;6170902;22;47102;-76
2022/06/03 12:38:25;;;;;;;;;11.50;8.00;;;;;;;;6232120;22;47307;-76
2022/06/03 12:41:11;;;;;;;;;;;;;;;;;;;;;
2022/06/03 13:20:56;;;;;;;;;10.75;9.75;;;;;;;;6188929;22;47652;-75
2022/06/03 13:23:22;;;;;;;;;11.75;10.50;;;;;;;;6247977;22;45171;-75
2022/06/03 13:25:48;;;;;;;;;11.00;10.00;;;;;;;;6246312;22;45205;-75
2022/06/03 13:28:18;;;;;;;;;13.50;10.50;;;;;;;;6209000;22;45444;-75
2022/06/03 13:30:43;;;;;;;;;11.00;9.00;;;;;;;;6189563;22;48057;-75
2022/06/03 13:33:19;;;;;;;;;12.50;10.00;;;;;;;;6188822;22;45390;-76
2022/06/03 13:36:03;;;;;;;;;8.00;8.00;;;;;;;;6217693;22;45224;-76
2022/06/03 13:38:40;;;;;;;;;10.50;9.00;;;;;;;;6188945;22;45572;-75
2022/06/03 13:44:48;;;;;;;;;14.00;9.25;;;;;;;;6216601;22;45369;-75
2022/06/03 13:47:20;;;;;;;;;11.75;11.50;;;;;;;;6202873;22;45343;-75
2022/06/03 13:49:49;;;;;;;;;12.00;11.00;;;;;;;;6188683;22;45292;-75
2022/06/03 13:52:20;;;;;;;;;11.25;11.00;;;;;;;;6188913;22;46355;-75
2022/06/03 13:54:48;;;;;;;;;12.50;9.75;;;;;;;;6189192;22;45530;-75
2022/06/03 13:57:20;;;;;;;;;6.75;6.75;;;;;;;;6189278;22;45395;-75
2022/06/03 13:59:46;;;;;;;;;11.25;9.00;;;;;;;;6216042;22;45495;-75
2022/06/03 14:05:36;;;;;;;;;;;;;;;;;;;;;
2022/06/03 14:08:41;;;;;;;;;11.75;10.25;;;;;;;;6215402;22;67607;-76
2022/06/03 14:11:07;;;;;;;;;15.00;12.00;;;;;;;;6129146;22;45493;-76
2022/06/03 14:13:46;;;;;;;;;;;;;;;;;;;;;
2022/06/03 14:16:20;;;;;;;;;13.00;12.00;;;;;;;;6214744;22;73072;-76
2022/06/03 14:19:05;;;;;;;;;13.75;12.50;;;;;;;;6216295;22;45283;-76
2022/06/03 14:21:34;;;;;;;;;12.00;10.50;;;;;;;;6188746;22;45461;-76
2022/06/03 14:24:22;;;;;;;;;12.25;11.75;;;;;;;;6215720;22;45232;-76
2022/06/03 14:26:56;;;;;;;;;15.75;12.50;;;;;;;;6170166;22;45321;-76
2022/06/03 14:29:56;;;;;;;;;18.00;12.25;;;;;;;;6189012;22;45432;-76
2022/06/03 14:32:42;;;;;;;;;;;;;;;;;;;;;
2022/06/03 14:35:30;;;;;;;;;12.75;9.25;;;;;;;;6214294;22;75467;-76
2022/06/03 14:38:14;;;;;;;;;13.00;10.25;;;;;;;;6188397;22;45178;-76
2022/06/03 14:40:44;;;;;;;;;13.00;10.75;;;;;;;;6188502;22;45574;-76
2022/06/03 14:46:22;;;;;;;;;9.00;9.00;;;;;;;;6197465;22;46072;-76
2022/06/03 14:48:50;;;;;;;;;11.00;8.75;;;;;;;;6189998;22;45356;-76
2022/06/03 14:51:52;;;;;;;;;9.00;9.00;;;;;;;;6217572;22;45163;-76
2022/06/03 14:54:50;;;;;;;;;;;;;;;;;;;;;
2022/06/03 14:57:45;;;;;;;;;9.75;8.00;;;;;;;;6205393;22;75377;-76
2022/06/03 15:03:33;;;;;;;;;7.00;7.00;;;;;;;;6216286;22;45415;-75
2022/06/03 15:06:08;;;;;;;;;10.25;9.00;;;;;;;;6217189;22;45354;-75
2022/06/03 15:08:34;;;;;;;;;8.25;7.75;;;;;;;;6216070;22;45470;-75
2022/06/03 15:11:08;;;;;;;;;8.33;8.33;;;;;;;;6188999;22;45474;-75
2022/06/03 15:13:36;;;;;;;;;10.00;8.00;;;;;;;;6216824;22;45653;-76
2022/06/03 15:16:06;;;;;;;;;8.00;6.50;;;;;;;;6216630;22;45389;-76
2022/06/03 15:18:33;;;;;;;;;9.00;7.50;;;;;;;;6190282;22;47070;-75
2022/06/03 15:21:20;;;;;;;;;9.00;8.00;;;;;;;;6217568;22;45495;-76
2022/06/03 15:24:16;;;;;;;;;;;;;;;;;;;;;
2022/06/03 15:26:42;;;;;;;;;7.00;7.00;;;;;;;;6216507;22;73512;-75
2022/06/03 15:29:23;;;;;;;;;7.25;4.75;;;;;;;;6215009;22;45288;-75
2022/06/03 15:31:53;;;;;;;;;8.75;7.00;;;;;;;;6216426;22;45741;-75
2022/06/03 15:34:48;;;;;;;;;;;;;;;;;;;;;
2022/06/03 15:37:16;;;;;;;;;5.75;5.50;;;;;;;;6214964;22;73106;-75
2022/06/03 15:40:00;;;;;;;;;;;;;;;;;;;;;
2022/06/03 15:42:26;;;;;;;;;10.75;9.75;;;;;;;;6215999;22;73078;-75
2022/06/03 15:45:00;;;;;;;;;9.25;8.00;;;;;;;;6190026;22;45415;-76
2022/06/03 16:34:51;;;;;;;;;;;;;;;;;;;;;
2022/06/03 16:37:49;;;;;;;;;;;;;;;;;;;;;
2022/06/03 16:44:01;;;;;;;;;;;;;;;;;;;;;
2022/06/03 16:46:38;;;;;;;;;11.75;10.25;;;;;;;;6212398;22;74038;-77
2022/06/03 17:02:26;;;;;;;;;;;;;;;;;;;;;
2022/06/03 17:05:30;;;;;;;;;;;;;;;;;;;;;
2022/06/03 17:08:15;;;;;;;;;;;;;;;;;;;;;
2022/06/03 17:23:31;;;;;;;;;13.25;13.25;;;;;;;;5948908;23;45583;-77
2022/06/03 17:26:15;;;;;;;;;;;;;;;;;;;;;
2022/06/03 17:48:13;;;;;;;;;;;;;;;;;;;;;
2022/06/03 18:00:14;;;;;;;;;14.00;12.50;;;;;;;;6201434;22;46066;-76
2022/06/03 18:06:23;;;;;;;;;13.50;11.75;;;;;;;;6234755;22;45500;-76
2022/06/03 18:09:11;;;;;;;;;19.25;17.50;;;;;;;;6242464;22;45579;-76
2022/06/03 18:12:00;;;;;;;;;;;;;;;;;;;;;
2022/06/03 18:57:34;;;;;;;;;22.00;19.50;;;;;;;;6157384;22;45760;-75
2022/06/03 19:00:21;;;;;;;;;20.25;18.75;;;;;;;;6250001;22;45541;-76
2022/06/03 19:03:10;;;;;;;;;23.50;20.25;;;;;;;;6278994;22;45318;-75
2022/06/03 19:05:55;;;;;;;;;27.75;22.50;;;;;;;;6278724;22;45211;-75
2022/06/03 19:08:37;;;;;;;;;30.50;26.25;;;;;;;;6250367;22;46500;-76
2022/06/03 19:11:08;;;;;;;;;21.50;18.25;;;;;;;;6250310;22;45339;-76
2022/06/03 19:13:37;;;;;;;;;24.00;19.75;;;;;;;;6249275;22;45213;-76
2022/06/03 19:16:30;;;;;;;;;17.50;17.00;;;;;;;;6251011;22;45549;-75
2022/06/03 19:19:03;;;;;;;;;19.50;17.75;;;;;;;;6277078;22;45390;-76
2022/06/03 19:21:28;;;;;;;;;20.00;15.75;;;;;;;;6246513;22;45539;-76
2022/06/03 19:23:56;;;;;;;;;23.00;18.50;;;;;;;;6248989;22;45266;-76
2022/06/03 19:26:30;;;;;;;;;32.50;25.00;;;;;;;;6276247;22;45453;-76
2022/06/03 19:29:15;;;;;;;;;31.75;28.50;;;;;;;;6278408;22;45573;-76
2022/06/03 19:31:49;;;;;;;;;30.50;25.25;;;;;;;;6272375;22;45490;-76
2022/06/03 19:34:23;;;;;;;;;28.25;25.50;;;;;;;;6251053;22;45351;-76
2022/06/03 19:36:59;;;;;;;;;24.50;22.25;;;;;;;;6276733;22;45379;-76
2022/06/03 19:39:36;;;;;;;;;22.00;17.50;;;;;;;;6276151;22;45457;-75
2022/06/03 19:42:27;;;;;;;;;;;;;;;;;;;;;
2022/06/03 19:44:55;;;;;;;;;26.50;20.75;;;;;;;;6277001;22;67869;-76
2022/06/03 19:54:03;;;;;;;;;;;;;;;;;;;;;
2022/06/03 19:56:25;;;;;;;;;25.50;20.00;;;;;;;;6271560;22;45802;-76
2022/06/03 19:58:55;;;;;;;;;28.75;21.75;;;;;;;;6249723;22;45450;-77
2022/06/03 20:01:47;;;;;;;;;28.75;22.75;;;;;;;;6278858;22;45331;-76
2022/06/03 20:04:20;;;;;;;;;28.75;24.50;;;;;;;;6249125;22;45546;-76
2022/06/03 20:06:47;;;;;;;;;25.25;20.25;;;;;;;;6277942;22;45340;-76
2022/06/03 20:09:38;;;;;;;;;29.75;24.50;;;;;;;;6250224;22;45693;-76
2022/06/03 20:17:52;;;;;;;;;27.25;24.25;;;;;;;;6275456;22;45233;-76
2022/06/03 20:23:20;;;;;;;;;50.75;37.00;;;;;;;;6277963;22;47256;-75
2022/06/03 20:26:05;;;;;;;;;39.75;32.25;;;;;;;;6276807;22;45236;-76
2022/06/03 20:28:31;;;;;;;;;32.50;26.00;;;;;;;;6250189;22;45376;-75
2022/06/03 20:31:14;;;;;;;;;35.75;28.00;;;;;;;;6277916;22;45240;-75
2022/06/03 20:33:45;;;;;;;;;32.25;26.50;;;;;;;;6278414;22;46105;-76
2022/06/03 20:36:27;;;;;;;;;;;;;;;;;;;;;
2022/06/03 20:39:14;;;;;;;;;29.75;24.25;;;;;;;;6275179;22;68788;-75
2022/06/03 20:41:52;;;;;;;;;27.75;27.00;;;;;;;;6250179;22;45400;-76
2022/06/03 20:44:30;;;;;;;;;28.50;27.25;;;;;;;;6277361;22;46285;-75
2022/06/03 20:47:26;;;;;;;;;32.25;27.25;;;;;;;;6277532;22;45500;-75
2022/06/03 20:49:59;;;;;;;;;33.50;28.00;;;;;;;;6250128;22;45697;-76
2022/06/03 20:52:43;;;;;;;;;32.75;28.75;;;;;;;;6250141;22;45471;-76
2022/06/03 20:55:20;;;;;;;;;28.75;25.25;;;;;;;;6277082;22;46598;-76
2022/06/03 20:57:45;;;;;;;;;33.00;30.50;;;;;;;;6236039;22;45676;-76
2022/06/03 21:00:23;;;;;;;;;30.00;27.00;;;;;;;;6277158;22;45315;-76
2022/06/03 21:02:59;;;;;;;;;30.50;26.25;;;;;;;;6277746;22;45562;-76
2022/06/03 21:14:08;;;;;;;;;34.25;28.00;;;;;;;;6277652;22;45330;-75
2022/06/03 21:16:35;;;;;;;;;29.25;24.00;;;;;;;;6278161;22;45351;-76
2022/06/03 21:19:00;;;;;;;;;35.25;31.25;;;;;;;;6277900;22;45409;-76
2022/06/03 21:21:31;;;;;;;;;32.75;30.00;;;;;;;;6278215;22;45393;-76
2022/06/03 21:24:11;;;;;;;;;34.25;29.25;;;;;;;;6276669;22;45109;-77
2022/06/03 21:26:41;;;;;;;;;27.75;26.75;;;;;;;;6277435;22;45390;-76
2022/06/03 21:29:09;;;;;;;;;39.50;33.25;;;;;;;;6277948;22;45518;-76
2022/06/03 21:31:39;;;;;;;;;27.75;24.25;;;;;;;;6248930;22;45258;-77
2022/06/03 21:34:34;;;;;;;;;36.75;29.50;;;;;;;;6275813;22;45624;-76
2022/06/03 21:37:08;;;;;;;;;33.75;30.00;;;;;;;;6242284;22;46020;-76
2022/06/03 21:39:39;;;;;;;;;29.00;26.00;;;;;;;;6276578;22;45398;-76
2022/06/03 21:42:07;;;;;;;;;32.50;28.50;;;;;;;;6249530;22;45627;-76
2022/06/03 21:44:37;;;;;;;;;36.75;31.50;;;;;;;;6277136;22;45332;-76
2022/06/03 21:47:07;;;;;;;;;30.00;25.50;;;;;;;;6249615;22;47017;-77
2022/06/03 21:49:41;;;;;;;;;35.75;32.25;;;;;;;;6249554;22;45426;-76
2022/06/03 21:52:07;;;;;;;;;35.75;29.50;;;;;;;;6250391;22;45363;-76
2022/06/03 21:54:51;;;;;;;;;29.25;27.75;;;;;;;;6277734;22;45414;-76
2022/06/03 21:57:25;;;;;;;;;33.25;27.25;;;;;;;;6250056;22;48145;-76
2022/06/03 21:59:50;;;;;;;;;34.00;30.00;;;;;;;;6277911;22;45215;-76
2022/06/03 22:02:22;;;;;;;;;39.75;31.25;;;;;;;;6249688;22;45316;-76
2022/06/03 22:04:51;;;;;;;;;37.50;33.50;;;;;;;;6250066;22;45332;-76
2022/06/03 22:07:17;;;;;;;;;31.25;29.25;;;;;;;;6278840;22;45372;-76
2022/06/03 22:09:44;;;;;;;;;34.50;30.75;;;;;;;;6278335;22;45438;-76
2022/06/03 22:14:54;;;;;;;;;31.50;26.50;;;;;;;;6277469;22;45666;-77
2022/06/03 22:17:21;;;;;;;;;32.50;27.75;;;;;;;;6277625;22;46294;-76
2022/06/03 22:19:50;;;;;;;;;28.00;22.25;;;;;;;;6278116;22;45491;-76
2022/06/03 22:22:15;;;;;;;;;34.50;29.00;;;;;;;;6249523;22;45351;-76
2022/06/03 22:24:40;;;;;;;;;16.25;8.75;;;;;;;;6278217;22;45405;-75
2022/06/03 22:27:21;;;;;;;;;27.25;25.25;;;;;;;;6277933;22;45927;-75
